Time;durP1;ratioP1;P1;durP2;ratioP2;P2;SDS_P1;SDS_P2;PMS_P1;PMS_P2;Temp;Humidity;BMP_temperature;BMP_pressure;BME280_temperature;BME280_humidity;BME280_pressure;Samples;Min_cycle;Max_cycle;Signal;HPM_P1;HPM_P2
2024/02/19 00:01:46;;;;;;;;;;;;;;;8.04;100.00;102745.44;5075043;28;19916;-80
2024/02/19 00:04:11;;;;;;;;;;;;;;;8.02;100.00;102747.19;5056974;28;20085;-79
2024/02/19 00:06:37;;;;;;;;;;;;;;;8.05;100.00;102749.78;5057098;28;20151;-80
2024/02/19 00:09:03;;;;;;;;;;;;;;;8.07;100.00;102753.25;5074161;28;19920;-79
2024/02/19 00:11:29;;;;;;;;;;;;;;;8.09;100.00;102748.03;5075004;28;19923;-80
2024/02/19 00:13:55;;;;;;;;;;;;;;;8.11;100.00;102751.50;5075666;28;19916;-79
2024/02/19 00:16:20;;;;;;;;;;;;;;;8.08;100.00;102752.41;5079004;28;19928;-79
2024/02/19 00:18:46;;;;;;;;;;;;;;;8.10;100.00;102754.16;5078149;28;19908;-79
2024/02/19 00:21:11;;;;;;;;;;;;;;;8.10;100.00;102752.41;5060231;28;19916;-79
2024/02/19 00:23:36;;;;;;;;;;;;;;;8.11;100.00;102754.13;5078962;28;19979;-78
2024/02/19 00:26:01;;;;;;;;;;;;;;;8.10;100.00;102757.63;5078345;28;19944;-78
2024/02/19 00:28:27;;;;;;;;;;;;;;;8.12;100.00;102757.63;5078778;28;19920;-79
2024/02/19 00:30:53;;;;;;;;;;;;;;;8.08;100.00;102752.41;5078432;28;19915;-79
2024/02/19 00:33:19;;;;;;;;;;;;;;;8.09;100.00;102758.47;5078711;28;19944;-79
2024/02/19 00:35:44;;;;;;;;;;;;;;;8.09;100.00;102755.88;5078558;28;20215;-79
2024/02/19 00:38:09;;;;;;;;;;;;;;;8.11;100.00;102761.09;5078489;28;20285;-79
2024/02/19 00:40:34;;;;;;;;;;;;;;;8.08;100.00;102761.97;5074893;28;19916;-78
2024/02/19 00:43:00;;;;;;;;;;;;;;;8.07;100.00;102768.91;5098136;28;19920;-78
2024/02/19 00:45:25;;;;;;;;;;;;;;;8.10;100.00;102772.41;5099177;28;20217;-78
2024/02/19 00:47:50;;;;;;;;;;;;;;;8.11;100.00;102761.09;5098575;28;20014;-78
2024/02/19 00:50:15;;;;;;;;;;;;;;;8.10;100.00;102762.84;5080448;28;19920;-79
2024/02/19 00:52:41;;;;;;;;;;;;;;;8.12;100.00;102760.22;5080287;28;19923;-79
2024/02/19 00:55:06;;;;;;;;;;;;;;;8.05;100.00;102756.75;5098577;28;19916;-78
2024/02/19 00:57:32;;;;;;;;;;;;;;;8.04;100.00;102768.94;5080253;28;20231;-78
2024/02/19 00:59:57;;;;;;;;;;;;;;;8.02;100.00;102772.38;5098197;28;20018;-78
2024/02/19 01:02:23;;;;;;;;;;;;;;;7.96;100.00;102772.38;5079985;28;20080;-78
2024/02/19 01:04:49;;;;;;;;;;;;;;;7.96;100.00;102767.19;5098388;28;19915;-78
2024/02/19 01:07:15;;;;;;;;;;;;;;;7.93;100.00;102757.63;5098297;28;19955;-79
2024/02/19 01:09:41;;;;;;;;;;;;;;;7.94;100.00;102761.94;5098805;28;20398;-78
2024/02/19 01:12:06;;;;;;;;;;;;;;;7.95;100.00;102760.19;5097722;28;19919;-78
2024/02/19 01:14:31;;;;;;;;;;;;;;;7.98;100.00;102760.22;5098356;28;19916;-78
2024/02/19 01:16:56;;;;;;;;;;;;;;;8.00;100.00;102763.69;5097646;28;19916;-78
2024/02/19 01:19:21;;;;;;;;;;;;;;;8.00;100.00;102761.06;5098410;28;20111;-79
2024/02/19 01:21:50;;;;;;;;;;;;;;;8.04;100.00;102755.88;5098057;28;19982;-78
2024/02/19 01:24:15;;;;;;;;;;;;;;;8.02;100.00;102768.06;5098013;28;20159;-78
2024/02/19 01:26:40;;;;;;;;;;;;;;;8.05;100.00;102768.03;5098525;28;19916;-78
2024/02/19 01:29:05;;;;;;;;;;;;;;;8.11;100.00;102768.91;5097901;28;19970;-78
2024/02/19 01:31:31;;;;;;;;;;;;;;;8.10;100.00;102768.06;5097882;28;19931;-78
2024/02/19 01:33:56;;;;;;;;;;;;;;;8.09;100.00;102776.75;5097647;28;19916;-78
2024/02/19 01:36:22;;;;;;;;;;;;;;;8.07;100.00;102774.13;5079349;28;19930;-78
2024/02/19 01:38:47;;;;;;;;;;;;;;;8.11;100.00;102777.59;5098087;28;19916;-78
2024/02/19 01:41:12;;;;;;;;;;;;;;;8.12;100.00;102766.31;5097721;28;19916;-78
2024/02/19 01:43:37;;;;;;;;;;;;;;;8.13;100.00;102772.41;5098228;28;19939;-78
2024/02/19 01:46:03;;;;;;;;;;;;;;;8.13;100.00;102772.41;5097023;28;19950;-79
2024/02/19 01:48:28;;;;;;;;;;;;;;;8.14;100.00;102768.94;5097572;28;19934;-78
2024/02/19 01:50:54;;;;;;;;;;;;;;;8.11;100.00;102766.31;5079048;28;19908;-78
2024/02/19 01:53:19;;;;;;;;;;;;;;;8.08;100.00;102764.59;5097540;28;19908;-78
2024/02/19 01:55:48;;;;;;;;;;;;;;;8.08;100.00;102764.59;5097499;28;20103;-78
2024/02/19 01:58:14;;;;;;;;;;;;;;;8.09;100.00;102766.31;5079067;28;19961;-79
2024/02/19 02:00:40;;;;;;;;;;;;;;;8.02;100.00;102762.84;5097719;28;19920;-78
2024/02/19 02:03:06;;;;;;;;;;;;;;;8.07;100.00;102774.13;5097031;28;19991;-78
2024/02/19 02:05:32;;;;;;;;;;;;;;;8.08;100.00;102757.63;5097641;28;20128;-78
2024/02/19 02:07:57;;;;;;;;;;;;;;;7.99;100.00;102754.13;5096810;28;19985;-78
2024/02/19 02:10:22;;;;;;;;;;;;;;;8.01;100.00;102757.63;5097207;28;19942;-78
2024/02/19 02:12:47;;;;;;;;;;;;;;;8.01;100.00;102749.78;5097013;28;19978;-78
2024/02/19 02:15:13;;;;;;;;;;;;;;;8.01;100.00;102758.47;5079060;28;19957;-78
2024/02/19 02:17:40;;;;;;;;;;;;;;;7.94;100.00;102745.44;5078854;28;19988;-78
2024/02/19 02:20:06;;;;;;;;;;;;;;;7.93;100.00;102746.28;5096712;28;19915;-78
2024/02/19 02:22:31;;;;;;;;;;;;;;;7.91;100.00;102754.09;5097252;28;19908;-78
2024/02/19 02:24:56;;;;;;;;;;;;;;;7.92;100.00;102748.03;5078231;28;19935;-78
2024/02/19 02:27:22;;;;;;;;;;;;;;;7.91;100.00;102753.25;5097117;28;20122;-78
2024/02/19 02:29:47;;;;;;;;;;;;;;;7.90;100.00;102751.53;5096836;28;19916;-78
2024/02/19 02:32:12;;;;;;;;;;;;;;;7.94;100.00;102758.47;5096917;28;19916;-79
2024/02/19 02:34:37;;;;;;;;;;;;;;;7.98;100.00;102753.25;5096800;28;19961;-78
2024/02/19 02:37:02;;;;;;;;;;;;;;;7.97;100.00;102761.09;5095851;28;19908;-78
2024/02/19 02:39:28;;;;;;;;;;;;;;;8.02;100.00;102764.56;5096639;28;19916;-78
2024/02/19 02:41:54;;;;;;;;;;;;;;;8.05;100.00;102754.13;5095845;28;19915;-78
2024/02/19 02:44:19;;;;;;;;;;;;;;;8.06;100.00;102743.69;5097162;28;19938;-78
2024/02/19 02:46:44;;;;;;;;;;;;;;;7.98;100.00;102742.81;5097291;28;19923;-78
2024/02/19 02:49:09;;;;;;;;;;;;;;;8.01;100.00;102740.22;5096397;28;19987;-78
2024/02/19 02:51:35;;;;;;;;;;;;;;;7.98;100.00;102734.13;5078604;28;19916;-78
2024/02/19 02:54:00;;;;;;;;;;;;;;;7.92;100.00;102735.00;5096134;28;19980;-78
2024/02/19 02:56:25;;;;;;;;;;;;;;;7.93;100.00;102733.25;5096517;28;19919;-79
2024/02/19 02:58:51;;;;;;;;;;;;;;;8.00;100.00;102738.47;5095965;28;19987;-78
2024/02/19 03:01:17;;;;;;;;;;;;;;;8.02;100.00;102728.03;5097121;28;19923;-78
2024/02/19 03:03:43;;;;;;;;;;;;;;;8.04;100.00;102726.28;5096372;28;19916;-78
2024/02/19 03:06:08;;;;;;;;;;;;;;;8.06;100.00;102730.66;5077283;28;20224;-78
2024/02/19 03:08:33;;;;;;;;;;;;;;;8.01;100.00;102728.91;5096514;28;20215;-78
2024/02/19 03:10:59;;;;;;;;;;;;;;;8.00;100.00;102735.00;5077904;28;19908;-78
2024/02/19 03:13:24;;;;;;;;;;;;;;;8.02;100.00;102728.91;5076479;28;19916;-78
2024/02/19 03:15:50;;;;;;;;;;;;;;;7.99;100.00;102728.91;5075967;28;19944;-78
2024/02/19 03:18:15;;;;;;;;;;;;;;;7.97;100.00;102725.44;5058369;28;19916;-78
2024/02/19 03:20:41;;;;;;;;;;;;;;;7.98;100.00;102723.69;5075902;28;19917;-78
2024/02/19 03:23:06;;;;;;;;;;;;;;;7.99;100.00;102728.06;5057772;28;19924;-78
2024/02/19 03:25:31;;;;;;;;;;;;;;;7.95;100.00;102716.75;5076098;28;19912;-78
2024/02/19 03:27:56;;;;;;;;;;;;;;;8.02;100.00;102717.59;5075795;28;20015;-78
2024/02/19 03:30:22;;;;;;;;;;;;;;;8.06;100.00;102712.38;5075712;28;19908;-78
2024/02/19 03:32:47;;;;;;;;;;;;;;;8.08;100.00;102702.81;5074551;28;19935;-78
2024/02/19 03:35:12;;;;;;;;;;;;;;;8.06;100.00;102703.69;5075108;28;19931;-78
2024/02/19 03:37:38;;;;;;;;;;;;;;;8.06;100.00;102699.34;5075500;28;20010;-78
2024/02/19 03:40:06;;;;;;;;;;;;;;;8.08;100.00;102699.34;5066586;28;19916;-78
2024/02/19 03:42:31;;;;;;;;;;;;;;;8.11;100.00;102695.84;5095634;28;19948;-78
2024/02/19 03:44:56;;;;;;;;;;;;;;;8.12;100.00;102702.81;5095274;28;19916;-78
2024/02/19 03:47:21;;;;;;;;;;;;;;;8.11;100.00;102714.97;5096614;28;19926;-78
2024/02/19 03:49:47;;;;;;;;;;;;;;;8.08;100.00;102715.84;5100369;28;19916;-78
2024/02/19 03:52:12;;;;;;;;;;;;;;;8.12;100.00;102716.72;5099162;28;20160;-78
2024/02/19 03:54:37;;;;;;;;;;;;;;;8.17;100.00;102722.81;5099634;28;19961;-78
2024/02/19 03:57:04;;;;;;;;;;;;;;;8.21;100.00;102721.94;5099145;28;19916;-78
2024/02/19 03:59:31;;;;;;;;;;;;;;;8.23;100.00;102724.56;5099688;28;19981;-78
2024/02/19 04:01:56;;;;;;;;;;;;;;;8.24;100.00;102719.34;5099054;28;19916;-78
2024/02/19 04:04:22;;;;;;;;;;;;;;;8.23;100.00;102720.19;5099593;28;19916;-78
2024/02/19 04:06:47;;;;;;;;;;;;;;;8.26;100.00;102724.56;5100057;28;19916;-78
2024/02/19 04:09:12;;;;;;;;;;;;;;;8.23;100.00;102720.19;5098425;28;19920;-78
2024/02/19 04:11:38;;;;;;;;;;;;;;;8.23;100.00;102727.16;5099152;28;19930;-79
2024/02/19 04:14:03;;;;;;;;;;;;;;;8.25;100.00;102726.28;5098507;28;20016;-78
2024/02/19 04:16:28;;;;;;;;;;;;;;;8.27;100.00;102731.50;5099615;28;19908;-78
2024/02/19 04:18:54;;;;;;;;;;;;;;;8.27;100.00;102726.28;5098814;28;19939;-78
2024/02/19 04:21:19;;;;;;;;;;;;;;;8.29;100.00;102732.38;5098992;28;19916;-78
2024/02/19 04:23:44;;;;;;;;;;;;;;;8.27;100.00;102729.75;5099042;28;19928;-78
2024/02/19 04:26:09;;;;;;;;;;;;;;;8.25;100.00;102741.06;5098500;28;19920;-78
2024/02/19 04:28:34;;;;;;;;;;;;;;;8.24;100.00;102729.78;5099077;28;20138;-78
2024/02/19 04:31:00;;;;;;;;;;;;;;;8.24;100.00;102737.59;5098301;28;19982;-78
2024/02/19 04:33:25;;;;;;;;;;;;;;;8.22;100.00;102736.75;5099059;28;19916;-78
2024/02/19 04:35:50;;;;;;;;;;;;;;;8.24;100.00;102729.78;5098043;28;20126;-78
2024/02/19 04:38:15;;;;;;;;;;;;;;;8.28;100.00;102733.25;5098898;28;20177;-78
2024/02/19 04:40:41;;;;;;;;;;;;;;;8.31;100.00;102729.75;5098662;28;20123;-78
2024/02/19 04:43:06;;;;;;;;;;;;;;;8.33;100.00;102726.28;5098376;28;19943;-78
2024/02/19 04:45:31;;;;;;;;;;;;;;;8.32;100.00;102726.28;5098552;28;20008;-78
2024/02/19 04:47:57;;;;;;;;;;;;;;;8.34;100.00;102724.53;5097978;28;19927;-78
2024/02/19 04:50:22;;;;;;;;;;;;;;;8.35;100.00;102732.38;5080233;28;19916;-78
2024/02/19 04:52:47;;;;;;;;;;;;;;;8.36;100.00;102726.28;5099067;28;19916;-78
2024/02/19 04:55:13;;;;;;;;;;;;;;;8.35;100.00;102721.03;5097848;28;19983;-78
2024/02/19 04:57:39;;;;;;;;;;;;;;;8.35;100.00;102715.81;5098527;28;19991;-78
2024/02/19 05:00:04;;;;;;;;;;;;;;;8.34;100.00;102716.72;5097175;28;19916;-78
2024/02/19 05:02:30;;;;;;;;;;;;;;;8.32;100.00;102708.03;5098549;28;19930;-78
2024/02/19 05:04:55;;;;;;;;;;;;;;;8.33;100.00;102705.41;5097775;28;19915;-78
2024/02/19 05:07:20;;;;;;;;;;;;;;;8.33;100.00;102708.03;5098236;28;20256;-77
2024/02/19 05:09:45;;;;;;;;;;;;;;;8.34;100.00;102707.13;5097874;28;20227;-78
2024/02/19 05:12:11;;;;;;;;;;;;;;;8.34;100.00;102701.91;5079267;28;19931;-78
2024/02/19 05:14:36;;;;;;;;;;;;;;;8.37;100.00;102711.50;5098084;28;19916;-78
2024/02/19 05:17:01;;;;;;;;;;;;;;;8.40;100.00;102709.75;5079120;28;19991;-78
2024/02/19 05:19:26;;;;;;;;;;;;;;;8.40;100.00;102717.59;5097849;28;19916;-78
2024/02/19 05:21:52;;;;;;;;;;;;;;;8.39;100.00;102717.59;5097544;28;20262;-78
2024/02/19 05:24:17;;;;;;;;;;;;;;;8.39;100.00;102720.19;5097979;28;19923;-78
2024/02/19 05:26:43;;;;;;;;;;;;;;;8.38;100.00;102706.25;5097865;28;20239;-78
2024/02/19 05:29:08;;;;;;;;;;;;;;;8.39;100.00;102704.53;5096840;28;19920;-78
2024/02/19 05:31:35;;;;;;;;;;;;;;;8.40;100.00;102706.25;5098128;28;20119;-78
2024/02/19 05:34:01;;;;;;;;;;;;;;;8.40;100.00;102711.47;5097097;28;20218;-78
2024/02/19 05:36:26;;;;;;;;;;;;;;;8.38;100.00;102713.22;5078989;28;19931;-78
2024/02/19 05:38:51;;;;;;;;;;;;;;;8.36;100.00;102705.38;5096772;28;20122;-78
2024/02/19 05:41:17;;;;;;;;;;;;;;;8.34;100.00;102714.09;5077282;28;19931;-78
2024/02/19 05:43:42;;;;;;;;;;;;;;;8.31;100.00;102707.13;5077307;28;19927;-78
2024/02/19 05:46:08;;;;;;;;;;;;;;;8.34;100.00;102706.28;5076552;28;19917;-77
2024/02/19 05:48:33;;;;;;;;;;;;;;;8.33;100.00;102708.03;5059094;28;19924;-78
2024/02/19 05:51:03;;;;;;;;;;;;;;;8.34;100.00;102698.44;5076397;28;19947;-78
2024/02/19 05:53:28;;;;;;;;;;;;;;;8.33;100.00;102701.91;5076890;28;19951;-78
2024/02/19 05:55:53;;;;;;;;;;;;;;;8.31;100.00;102698.44;5076166;28;19939;-78
2024/02/19 05:58:19;;;;;;;;;;;;;;;8.35;100.00;102702.78;5058916;28;19916;-78
2024/02/19 06:00:44;;;;;;;;;;;;;;;8.39;100.00;102691.47;5076851;28;19921;-78
2024/02/19 06:03:09;;;;;;;;;;;;;;;8.38;100.00;102692.34;5076147;28;19924;-78
2024/02/19 06:05:34;;;;;;;;;;;;;;;8.34;100.00;102688.00;5076766;28;19916;-78
2024/02/19 06:07:59;;;;;;;;;;;;;;;8.30;100.00;102683.66;5075993;28;19993;-78
2024/02/19 06:10:25;;;;;;;;;;;;;;;8.32;100.00;102693.22;5089197;28;19916;-78
2024/02/19 06:12:52;;;;;;;;;;;;;;;8.31;100.00;102690.59;5077215;28;19916;-77
2024/02/19 06:15:17;;;;;;;;;;;;;;;8.30;100.00;102694.97;5078487;28;20272;-78
2024/02/19 06:17:42;;;;;;;;;;;;;;;8.32;100.00;102695.81;5096585;28;19948;-78
2024/02/19 06:20:08;;;;;;;;;;;;;;;8.28;100.00;102701.94;5096587;28;20122;-78
2024/02/19 06:22:33;;;;;;;;;;;;;;;8.24;100.00;102705.41;5097069;28;19957;-78
2024/02/19 06:24:58;;;;;;;;;;;;;;;8.25;100.00;102708.00;5078144;28;19916;-79
2024/02/19 06:27:23;;;;;;;;;;;;;;;8.29;100.00;102705.41;5096727;28;20164;-79
2024/02/19 06:29:49;;;;;;;;;;;;;;;8.26;100.00;102711.50;5096567;28;20286;-79
2024/02/19 06:32:14;;;;;;;;;;;;;;;8.25;100.00;102705.41;5096899;28;19931;-79
2024/02/19 06:34:40;;;;;;;;;;;;;;;8.25;100.00;102702.78;5096140;28;19916;-79
2024/02/19 06:37:06;;;;;;;;;;;;;;;8.26;100.00;102703.69;5095903;28;20178;-79
2024/02/19 06:39:31;;;;;;;;;;;;;;;8.27;100.00;102697.56;5096274;28;19916;-79
2024/02/19 06:41:57;;;;;;;;;;;;;;;8.29;100.00;102693.22;5095535;28;19923;-79
2024/02/19 06:44:22;;;;;;;;;;;;;;;8.25;100.00;102691.47;5096116;28;20089;-79
2024/02/19 06:46:48;;;;;;;;;;;;;;;8.27;100.00;102687.13;5096042;28;19939;-79
2024/02/19 06:49:14;;;;;;;;;;;;;;;8.28;100.00;102694.09;5095898;28;20156;-78
2024/02/19 06:51:39;;;;;;;;;;;;;;;8.24;100.00;102698.44;5078168;28;19923;-78
2024/02/19 06:54:05;;;;;;;;;;;;;;;8.27;100.00;102708.88;5095391;28;19954;-79
2024/02/19 06:56:30;;;;;;;;;;;;;;;8.29;100.00;102705.41;5096030;28;19922;-78
2024/02/19 06:58:56;;;;;;;;;;;;;;;8.32;100.00;102702.81;5095701;28;19979;-78
2024/02/19 07:01:21;;;;;;;;;;;;;;;8.31;100.00;102699.28;5096405;28;20134;-79
2024/02/19 07:03:46;;;;;;;;;;;;;;;8.32;100.00;102693.22;5078302;28;19916;-79
2024/02/19 07:06:12;;;;;;;;;;;;;;;8.34;100.00;102681.03;5095833;28;19916;-78
2024/02/19 07:08:37;;;;;;;;;;;;;;;8.29;100.00;102672.31;5096340;28;19974;-79
2024/02/19 07:11:03;;;;;;;;;;;;;;;8.34;100.00;102683.63;5095384;28;19908;-79
2024/02/19 07:13:28;;;;;;;;;;;;;;;8.31;100.00;102672.34;5096151;28;20115;-79
2024/02/19 07:15:53;;;;;;;;;;;;;;;8.30;100.00;102670.59;5077235;28;19908;-78
2024/02/19 07:18:19;;;;;;;;;;;;;;;8.30;100.00;102681.06;5096107;28;20215;-79
2024/02/19 07:20:44;;;;;;;;;;;;;;;8.32;100.00;102676.69;5096237;28;19923;-78
2024/02/19 07:23:10;;;;;;;;;;;;;;;8.34;100.00;102675.81;5095162;28;19915;-79
2024/02/19 07:25:35;;;;;;;;;;;;;;;8.26;100.00;102670.59;5095957;28;20224;-78
2024/02/19 07:28:00;;;;;;;;;;;;;;;8.33;100.00;102670.59;5095532;28;19927;-79
2024/02/19 07:30:26;;;;;;;;;;;;;;;8.31;100.00;102669.72;5095903;28;20273;-78
2024/02/19 07:32:51;;;;;;;;;;;;;;;8.32;100.00;102680.16;5095222;28;20131;-79
2024/02/19 07:35:16;;;;;;;;;;;;;;;8.35;100.00;102666.22;5096020;28;19924;-78
2024/02/19 07:37:42;;;;;;;;;;;;;;;8.40;100.00;102680.13;5095787;28;19916;-79
2024/02/19 07:40:07;;;;;;;;;;;;;;;8.41;100.00;102690.59;5076918;28;19920;-79
2024/02/19 07:42:32;;;;;;;;;;;;;;;8.31;100.00;102694.06;5095937;28;19916;-79
2024/02/19 07:44:58;;;;;;;;;;;;;;;8.26;100.00;102685.41;5095101;28;19916;-78
2024/02/19 07:47:23;;;;;;;;;;;;;;;8.32;100.00;102685.38;5095708;28;19990;-78
2024/02/19 07:49:48;;;;;;;;;;;;;;;8.37;100.00;102686.25;5096005;28;19923;-78
2024/02/19 07:52:13;;;;;;;;;;;;;;;8.39;100.00;102694.09;5077356;28;19916;-79
2024/02/19 07:54:39;;;;;;;;;;;;;;;8.37;100.00;102706.28;5077307;28;19976;-79
2024/02/19 07:57:04;;;;;;;;;;;;;;;8.33;100.00;102708.03;5095090;28;20088;-79
2024/02/19 07:59:29;;;;;;;;;;;;;;;8.34;100.00;102707.13;5096036;28;19923;-78
2024/02/19 08:01:54;;;;;;;;;;;;;;;8.34;100.00;102720.19;5095534;28;19950;-79
2024/02/19 08:04:24;;;;;;;;;;;;;;;8.34;100.00;102728.00;5077559;28;20096;-79
2024/02/19 08:06:50;;;;;;;;;;;;;;;8.34;100.00;102730.63;5095000;28;19908;-79
2024/02/19 08:09:15;;;;;;;;;;;;;;;8.36;100.00;102714.97;5095574;28;19955;-78
2024/02/19 08:11:40;;;;;;;;;;;;;;;8.38;100.00;102715.81;5095353;28;19968;-78
2024/02/19 08:14:05;;;;;;;;;;;;;;;8.42;100.00;102730.66;5094996;28;20183;-78
2024/02/19 08:16:31;;;;;;;;;;;;;;;8.48;100.00;102741.09;5095139;28;20100;-78
2024/02/19 08:18:56;;;;;;;;;;;;;;;8.50;100.00;102730.66;5095234;28;20061;-78
2024/02/19 08:21:22;;;;;;;;;;;;;;;8.50;100.00;102733.28;5095496;28;19916;-78
2024/02/19 08:23:48;;;;;;;;;;;;;;;8.54;100.00;102733.25;5095562;28;19916;-78
2024/02/19 08:26:13;;;;;;;;;;;;;;;8.59;100.00;102741.09;5094513;28;19916;-78
2024/02/19 08:28:38;;;;;;;;;;;;;;;8.56;100.00;102746.31;5076875;28;20015;-78
2024/02/19 08:31:03;;;;;;;;;;;;;;;8.56;100.00;102752.38;5094608;28;20104;-78
2024/02/19 08:33:29;;;;;;;;;;;;;;;8.57;100.00;102756.75;5095291;28;19916;-78
2024/02/19 08:35:54;;;;;;;;;;;;;;;8.56;100.00;102755.00;5079129;28;19928;-78
2024/02/19 08:38:19;;;;;;;;;;;;;;;8.58;100.00;102742.81;5099281;28;19916;-79
2024/02/19 08:40:45;;;;;;;;;;;;;;;8.59;100.00;102738.47;5064661;28;20116;-78
2024/02/19 08:43:11;;;;;;;;;;;;;;;8.61;100.00;102740.19;5077746;28;19917;-78
2024/02/19 08:45:37;;;;;;;;;;;;;;;8.62;100.00;102741.94;5078130;28;19916;-78
2024/02/19 08:48:02;;;;;;;;;;;;;;;8.65;100.00;102746.28;5077284;28;20143;-78
2024/02/19 08:50:27;;;;;;;;;;;;;;;8.63;100.00;102741.06;5059682;28;19926;-78
2024/02/19 08:52:53;;;;;;;;;;;;;;;8.63;100.00;102741.06;5059003;28;19923;-78
2024/02/19 08:55:18;;;;;;;;;;;;;;;8.64;100.00;102739.31;5077889;28;19922;-78
2024/02/19 08:57:43;;;;;;;;;;;;;;;8.67;100.00;102741.06;5059810;28;19943;-79
2024/02/19 09:00:11;;;;;;;;;;;;;;;8.65;100.00;102734.09;5077536;28;19917;-78
2024/02/19 09:02:36;;;;;;;;;;;;;;;8.65;100.00;102731.47;5073993;28;19925;-78
2024/02/19 09:05:02;;;;;;;;;;;;;;;8.67;100.00;102736.69;5077311;28;20233;-78
2024/02/19 09:07:27;;;;;;;;;;;;;;;8.65;100.00;102722.78;5081221;28;19920;-78
2024/02/19 09:09:52;;;;;;;;;;;;;;;8.67;100.00;102725.38;5080810;28;19915;-78
2024/02/19 09:12:18;;;;;;;;;;;;;;;8.67;100.00;102733.22;5065207;28;20126;-78
2024/02/19 09:14:43;;;;;;;;;;;;;;;8.68;100.00;102714.03;5073532;28;19919;-78
2024/02/19 09:17:08;;;;;;;;;;;;;;;8.73;100.00;102718.41;5071838;28;20157;-78
2024/02/19 09:19:33;;;;;;;;;;;;;;;8.74;100.00;102712.28;5054743;28;19920;-78
2024/02/19 09:21:59;;;;;;;;;;;;;;;8.74;100.00;102714.03;5071254;28;20219;-78
2024/02/19 09:24:24;;;;;;;;;;;;;;;8.75;100.00;102711.44;5065426;28;19924;-79
2024/02/19 09:26:49;;;;;;;;;;;;;;;8.76;100.00;102713.16;5067739;28;19920;-78
2024/02/19 09:29:17;;;;;;;;;;;;;;;8.78;100.00;102715.78;5056956;28;19924;-78
2024/02/19 09:31:42;;;;;;;;;;;;;;;8.81;100.00;102710.53;5075051;28;19916;-78
2024/02/19 09:34:07;;;;;;;;;;;;;;;8.82;100.00;102709.66;5077197;28;19943;-78
2024/02/19 09:36:33;;;;;;;;;;;;;;;8.86;100.00;102702.66;5068149;28;19970;-78
2024/02/19 09:38:58;;;;;;;;;;;;;;;8.82;100.00;102691.38;5056090;28;19925;-79
2024/02/19 09:41:23;;;;;;;;;;;;;;;8.86;100.00;102702.66;5066149;28;20842;-79
2024/02/19 09:43:49;;;;;;;;;;;;;;;8.87;100.00;102693.97;5072954;28;19927;-78
2024/02/19 09:46:15;;;;;;;;;;;;;;;8.90;100.00;102694.84;5066713;28;19920;-78
2024/02/19 09:48:41;;;;;;;;;;;;;;;8.97;100.00;102699.16;5071027;28;20000;-79
2024/02/19 09:51:07;;;;;;;;;;;;;;;9.01;100.00;102695.66;5050703;28;19921;-78
2024/02/19 09:53:34;;;;;;;;;;;;;;;9.05;100.00;102693.03;5053188;28;19912;-78
2024/02/19 09:55:59;;;;;;;;;;;;;;;9.08;100.00;102693.00;5070479;28;19958;-77
2024/02/19 09:58:25;;;;;;;;;;;;;;;9.10;100.00;102686.91;5070967;28;20217;-78
2024/02/19 10:00:51;;;;;;;;;;;;;;;9.12;100.00;102685.13;5071713;28;19948;-78
2024/02/19 10:03:19;;;;;;;;;;;;;;;9.13;100.00;102692.13;5072488;28;20040;-77
2024/02/19 10:05:44;;;;;;;;;;;;;;;9.15;100.00;102687.75;5053110;28;19922;-77
2024/02/19 10:08:13;;;;;;;;;;;;;;;9.17;100.00;102679.91;5072158;28;19952;-78
2024/02/19 10:10:41;;;;;;;;;;;;;;;9.21;100.00;102671.16;5072603;28;19924;-78
2024/02/19 10:13:07;;;;;;;;;;;;;;;9.26;100.00;102672.00;5052324;28;20238;-78
2024/02/19 10:15:33;;;;;;;;;;;;;;;9.30;100.00;102678.09;5053898;28;19917;-78
2024/02/19 10:17:59;;;;;;;;;;;;;;;9.31;100.00;102675.44;5071297;28;19983;-78
2024/02/19 10:20:24;;;;;;;;;;;;;;;9.34;100.00;102675.44;5071277;28;19979;-78
2024/02/19 10:22:49;;;;;;;;;;;;;;;9.36;100.00;102672.81;5073646;28;20395;-77
2024/02/19 10:25:16;;;;;;;;;;;;;;;9.36;100.00;102672.81;5070893;28;19931;-78
2024/02/19 10:27:43;;;;;;;;;;;;;;;9.38;100.00;102676.28;5070771;28;20149;-77
2024/02/19 10:30:12;;;;;;;;;;;;;;;9.37;100.00;102672.81;5071149;28;19922;-78
2024/02/19 10:32:40;;;;;;;;;;;;;;;9.39;100.00;102673.66;5071439;28;19920;-77
2024/02/19 10:35:06;;;;;;;;;;;;;;;9.39;100.00;102673.66;5070543;28;19923;-77
2024/02/19 10:37:32;;;;;;;;;;;;;;;9.39;100.00;102671.03;5070945;28;19920;-77
2024/02/19 10:39:58;;;;;;;;;;;;;;;9.41;100.00;102671.03;5070037;28;19938;-77
2024/02/19 10:42:23;;;;;;;;;;;;;;;9.40;100.00;102654.50;5070957;28;20441;-77
2024/02/19 10:44:49;;;;;;;;;;;;;;;9.39;100.00;102657.97;5073018;28;19992;-77
2024/02/19 10:47:15;;;;;;;;;;;;;;;9.40;100.00;102658.81;5052337;28;19940;-78
2024/02/19 10:49:49;;;;;;;;;;;;;;;9.43;100.00;102661.44;5071599;28;19908;-78
2024/02/19 10:52:14;;;;;;;;;;;;;;;9.42;100.00;102657.06;5052210;28;20194;-77
2024/02/19 10:54:41;;;;;;;;;;;;;;;9.41;100.00;102664.06;5070145;28;19931;-78
2024/02/19 10:57:07;;;;;;;;;;;;;;;9.41;100.00;102642.28;5052511;28;20092;-78
2024/02/19 10:59:33;;;;;;;;;;;;;;;9.42;100.00;102649.22;5053130;28;20257;-77
2024/02/19 11:02:07;;;;;;;;;;;;;;;9.42;100.00;102675.38;5052591;28;19916;-77
2024/02/19 11:04:33;;;;;;;;;;;;;;;9.41;100.00;102666.66;5053607;28;20234;-77
2024/02/19 11:06:59;;;;;;;;;;;;;;;9.41;100.00;102669.28;5048205;28;19917;-77
2024/02/19 11:09:31;;;;;;;;;;;;;;;9.46;100.00;102653.56;5070027;28;20239;-77
2024/02/19 11:11:58;;;;;;;;;;;;;;;9.47;100.00;102665.75;5067515;28;19908;-77
2024/02/19 11:14:24;;;;;;;;;;;;;;;9.48;100.00;102656.16;5051245;28;19979;-78
2024/02/19 11:16:50;;;;;;;;;;;;;;;9.50;100.00;102639.59;5067698;28;20183;-78
2024/02/19 11:19:18;;;;;;;;;;;;;;;9.48;100.00;102635.22;5070978;28;19920;-77
2024/02/19 11:21:43;;;;;;;;;;;;;;;9.47;100.00;102629.13;5069977;28;19917;-78
2024/02/19 11:24:09;;;;;;;;;;;;;;;9.47;100.00;102634.38;5073244;28;20184;-77
2024/02/19 11:26:34;;;;;;;;;;;;;;;9.47;100.00;102631.75;5069382;28;19994;-77
2024/02/19 11:28:59;;;;;;;;;;;;;;;9.46;100.00;102624.81;5070095;28;20232;-78
2024/02/19 11:31:25;;;;;;;;;;;;;;;9.48;100.00;102630.88;5035788;28;19925;-78
2024/02/19 11:33:50;;;;;;;;;;;;;;;9.45;100.00;102633.53;5064124;28;19979;-77
2024/02/19 11:36:16;;;;;;;;;;;;;;;9.44;100.00;102625.69;5069683;28;19928;-78
2024/02/19 11:38:41;;;;;;;;;;;;;;;9.44;100.00;102628.28;5069796;28;19912;-78
2024/02/19 11:41:10;;;;;;;;;;;;;;;9.38;100.00;102622.22;5070164;28;19915;-76
2024/02/19 11:43:36;;;;;;;;;;;;;;;9.35;100.00;102617.03;5070380;28;19921;-77
2024/02/19 11:46:02;;;;;;;;;;;;;;;9.42;100.00;102591.69;5070275;28;19943;-77
2024/02/19 11:48:27;;;;;;;;;;;;;;;9.41;100.00;102582.97;5051635;28;20284;-77
2024/02/19 11:50:53;;;;;;;;;;;;;;;9.44;100.00;102599.53;5068672;28;19995;-77
2024/02/19 11:53:19;;;;;;;;;;;;;;;9.43;100.00;102598.66;5037839;28;19992;-77
2024/02/19 11:55:44;;;;;;;;;;;;;;;9.38;100.00;102609.16;5037144;28;19917;-77
2024/02/19 11:58:10;;;;;;;;;;;;;;;9.32;100.00;102610.97;5056068;28;19929;-76
2024/02/19 12:00:35;;;;;;;;;;;;;;;9.30;100.00;102615.34;5056487;28;20186;-79
2024/02/19 12:03:02;;;;;;;;;;;;;;;9.23;100.00;102602.28;5053871;28;19970;-77
2024/02/19 12:05:27;;;;;;;;;;;;;;;9.16;100.00;102602.34;5060346;28;19917;-76
2024/02/19 12:07:53;;;;;;;;;;;;;;;9.13;100.00;102616.31;5048969;28;19962;-77
2024/02/19 12:10:21;;;;;;;;;;;;;;;9.11;100.00;102612.81;5069029;28;19916;-77
2024/02/19 12:12:49;;;;;;;;;;;;;;;9.09;100.00;102608.50;5055677;28;19920;-77
2024/02/19 12:15:15;;;;;;;;;;;;;;;9.10;100.00;102594.56;5055855;28;20010;-77
2024/02/19 12:17:41;;;;;;;;;;;;;;;9.07;100.00;102618.09;5074679;28;19951;-77
2024/02/19 12:20:07;;;;;;;;;;;;;;;9.02;100.00;102611.16;5072535;28;19928;-77
2024/02/19 12:22:35;;;;;;;;;;;;;;;8.94;100.00;102599.84;5074267;28;19916;-78
2024/02/19 12:25:00;;;;;;;;;;;;;;;8.90;100.00;102592.94;5060666;28;19952;-77
2024/02/19 12:27:25;;;;;;;;;;;;;;;8.93;100.00;102598.16;5058623;28;19928;-78